Time;durP1;ratioP1;P1;durP2;ratioP2;P2;SDS_P1;SDS_P2;PMS_P1;PMS_P2;Temp;Humidity;BMP_temperature;BMP_pressure;BME280_temperature;BME280_humidity;BME280_pressure;Samples;Min_cycle;Max_cycle;Signal;HPM_P1;HPM_P2
2023/05/24 00:01:24;;;;;;;;;;;;;;;;;;5048945;28;19951;-57
2023/05/24 00:03:51;;;;;;;;;;;;;;;;;;5047334;28;20301;-57
2023/05/24 00:06:17;;;;;;;;;;;;;;;;;;5048819;28;20256;-57
2023/05/24 00:08:43;;;;;;;;;;;;;;;;;;5045370;28;19927;-56
2023/05/24 00:11:10;;;;;;;;;;;;;;;;;;5049184;28;19912;-57
2023/05/24 00:13:36;;;;;;;;;;;;;;;;;;5046330;28;20402;-56
2023/05/24 00:16:03;;;;;;;;;;;;;;;;;;5049936;28;19909;-57
2023/05/24 00:18:30;;;;;;;;;;;;;;;;;;5047772;28;19944;-56
2023/05/24 00:20:57;;;;;;;;;;;;;;;;;;5030950;28;19920;-57
2023/05/24 00:23:23;;;;;;;;;;;;;;;;;;5044776;28;19912;-56
2023/05/24 00:25:49;;;;;;;;;;;;;;;;;;5030678;28;19974;-57
2023/05/24 00:28:15;;;;;;;;;;;;;;;;;;5046608;28;19927;-57
2023/05/24 00:30:41;;;;;;;;;;;;;;;;;;5047359;28;20265;-56
2023/05/24 00:33:07;;;;;;;;;;;;;;;;;;5028413;28;20032;-60
2023/05/24 00:35:33;;;;;;;;;;;;;;;;;;5045411;28;20009;-56
2023/05/24 00:37:59;;;;;;;;;;;;;;;;;;5043364;28;19912;-56
2023/05/24 00:40:26;;;;;;;;;;;;;;;;;;5024881;28;20003;-57
2023/05/24 00:42:52;;;;;;;;;;;;;;;;;;5036037;28;19924;-57
2023/05/24 00:45:18;;;;;;;;;;;;;;;;;;5048138;28;20364;-56
2023/05/24 00:47:44;;;;;;;;;;;;;;;;;;5045719;28;19917;-56
2023/05/24 00:50:11;;;;;;;;;;;;;;;;;;5044279;28;19916;-56
2023/05/24 00:52:38;;;;;;;;;;;;;;;;;;5042813;28;19920;-56
2023/05/24 00:55:03;;;;;;;;;;;;;;;;;;5046843;28;20513;-60
2023/05/24 00:57:30;;;;;;;;;;;;;;;;;;5044805;28;19912;-56
2023/05/24 00:59:56;;;;;;;;;;;;;;;;;;5044001;28;20054;-57
2023/05/24 01:02:24;;;;;;;;;;;;;;;;;;5042946;28;19923;-56
2023/05/24 01:04:50;;;;;;;;;;;;;;;;;;5045795;28;19989;-56
2023/05/24 01:07:16;;;;;;;;;;;;;;;;;;5046151;28;20007;-56
2023/05/24 01:09:42;;;;;;;;;;;;;;;;;;5046612;28;19912;-57
2023/05/24 01:12:09;;;;;;;;;;;;;;;;;;5045187;28;20332;-56
2023/05/24 01:14:35;;;;;;;;;;;;;;;;;;5048669;28;19919;-56
2023/05/24 01:17:01;;;;;;;;;;;;;;;;;;5046181;28;19912;-56
2023/05/24 01:19:29;;;;;;;;;;;;;;;;;;5047491;28;20387;-56
2023/05/24 01:21:55;;;;;;;;;;;;;;;;;;5044639;28;19998;-57
2023/05/24 01:24:21;;;;;;;;;;;;;;;;;;5030763;28;20439;-57
2023/05/24 01:26:47;;;;;;;;;;;;;;;;;;5036494;28;19936;-56
2023/05/24 01:29:14;;;;;;;;;;;;;;;;;;5030513;28;19924;-57
2023/05/24 01:31:40;;;;;;;;;;;;;;;;;;5047419;28;19912;-56
2023/05/24 01:34:06;;;;;;;;;;;;;;;;;;5046912;28;20012;-56
2023/05/24 01:36:32;;;;;;;;;;;;;;;;;;5032526;28;19908;-56
2023/05/24 01:38:57;;;;;;;;;;;;;;;;;;5032972;28;19951;-57
2023/05/24 01:41:25;;;;;;;;;;;;;;;;;;5050198;28;19916;-57
2023/05/24 01:43:51;;;;;;;;;;;;;;;;;;5048820;28;20305;-57
2023/05/24 01:46:18;;;;;;;;;;;;;;;;;;5047741;28;20239;-57
2023/05/24 01:48:44;;;;;;;;;;;;;;;;;;5044983;28;20333;-56
2023/05/24 01:51:10;;;;;;;;;;;;;;;;;;5049656;28;19917;-57
2023/05/24 01:53:37;;;;;;;;;;;;;;;;;;5047721;28;20354;-56
2023/05/24 01:56:03;;;;;;;;;;;;;;;;;;5040270;28;19908;-57
2023/05/24 01:58:29;;;;;;;;;;;;;;;;;;5031652;28;19912;-57
2023/05/24 02:00:55;;;;;;;;;;;;;;;;;;5050899;28;20410;-57
2023/05/24 02:03:21;;;;;;;;;;;;;;;;;;5050626;28;19913;-57
2023/05/24 02:05:47;;;;;;;;;;;;;;;;;;5043805;28;19952;-57
2023/05/24 02:08:13;;;;;;;;;;;;;;;;;;5047952;28;20316;-57
2023/05/24 02:10:39;;;;;;;;;;;;;;;;;;5049542;28;20011;-56
2023/05/24 02:13:06;;;;;;;;;;;;;;;;;;5044614;28;20062;-57
2023/05/24 02:15:32;;;;;;;;;;;;;;;;;;5049549;28;19935;-57
2023/05/24 02:18:00;;;;;;;;;;;;;;;;;;5048079;28;20344;-57
2023/05/24 02:20:27;;;;;;;;;;;;;;;;;;5048819;28;20007;-57
2023/05/24 02:22:53;;;;;;;;;;;;;;;;;;5048995;28;19909;-56
2023/05/24 02:25:19;;;;;;;;;;;;;;;;;;5046892;28;20013;-57
2023/05/24 02:27:46;;;;;;;;;;;;;;;;;;5047500;28;19944;-56
2023/05/24 02:30:12;;;;;;;;;;;;;;;;;;5039104;28;20382;-57
2023/05/24 02:32:38;;;;;;;;;;;;;;;;;;5047281;28;19996;-56
2023/05/24 02:35:04;;;;;;;;;;;;;;;;;;5045295;28;19955;-56
2023/05/24 02:37:30;;;;;;;;;;;;;;;;;;5030213;28;19916;-57
2023/05/24 02:39:56;;;;;;;;;;;;;;;;;;5045782;28;20025;-57
2023/05/24 02:42:22;;;;;;;;;;;;;;;;;;5049737;28;20015;-56
2023/05/24 02:44:51;;;;;;;;;;;;;;;;;;5048881;28;19909;-57
2023/05/24 02:47:17;;;;;;;;;;;;;;;;;;5048301;28;20470;-56
2023/05/24 02:49:43;;;;;;;;;;;;;;;;;;5046081;28;19935;-56
2023/05/24 02:52:09;;;;;;;;;;;;;;;;;;5030662;28;19912;-57
2023/05/24 02:54:38;;;;;;;;;;;;;;;;;;5045628;28;20375;-57
2023/05/24 02:57:05;;;;;;;;;;;;;;;;;;5045716;28;20351;-56
2023/05/24 02:59:32;;;;;;;;;;;;;;;;;;5047212;28;19912;-57
2023/05/24 03:01:58;;;;;;;;;;;;;;;;;;5045861;28;19990;-56
2023/05/24 03:04:24;;;;;;;;;;;;;;;;;;5047485;28;20305;-56
2023/05/24 03:06:50;;;;;;;;;;;;;;;;;;5046071;28;20446;-56
2023/05/24 03:09:17;;;;;;;;;;;;;;;;;;5049835;28;19960;-56
2023/05/24 03:11:43;;;;;;;;;;;;;;;;;;5049885;28;19909;-56
2023/05/24 03:14:10;;;;;;;;;;;;;;;;;;5048258;28;20043;-56
2023/05/24 03:16:36;;;;;;;;;;;;;;;;;;5046324;28;19920;-56
2023/05/24 03:19:02;;;;;;;;;;;;;;;;;;5049762;28;19912;-57
2023/05/24 03:21:28;;;;;;;;;;;;;;;;;;5048905;28;19940;-57
2023/05/24 03:23:54;;;;;;;;;;;;;;;;;;5047922;28;19939;-57
2023/05/24 03:26:20;;;;;;;;;;;;;;;;;;5046931;28;20285;-56
2023/05/24 03:28:46;;;;;;;;;;;;;;;;;;5047819;28;19921;-56
2023/05/24 03:31:12;;;;;;;;;;;;;;;;;;5048593;28;20024;-56
2023/05/24 03:33:38;;;;;;;;;;;;;;;;;;5048662;28;19951;-61
2023/05/24 03:36:05;;;;;;;;;;;;;;;;;;5047499;28;19992;-56
2023/05/24 03:38:32;;;;;;;;;;;;;;;;;;5048115;28;19994;-57
2023/05/24 03:40:58;;;;;;;;;;;;;;;;;;5048346;28;20007;-57
2023/05/24 03:43:24;;;;;;;;;;;;;;;;;;5041221;28;20329;-57
2023/05/24 03:45:50;;;;;;;;;;;;;;;;;;5048175;28;19997;-56
2023/05/24 03:48:19;;;;;;;;;;;;;;;;;;5047905;28;19913;-56
2023/05/24 03:50:45;;;;;;;;;;;;;;;;;;5049027;28;20309;-57
2023/05/24 03:53:11;;;;;;;;;;;;;;;;;;5030552;28;19923;-57
2023/05/24 03:55:37;;;;;;;;;;;;;;;;;;5026787;28;19940;-57
2023/05/24 03:58:03;;;;;;;;;;;;;;;;;;5044719;28;19944;-57
2023/05/24 04:00:29;;;;;;;;;;;;;;;;;;5048385;28;19908;-56
2023/05/24 04:02:55;;;;;;;;;;;;;;;;;;5047073;28;19981;-57
2023/05/24 04:05:25;;;;;;;;;;;;;;;;;;5046048;28;20272;-57
2023/05/24 04:07:52;;;;;;;;;;;;;;;;;;5045898;28;19912;-56
2023/05/24 04:10:18;;;;;;;;;;;;;;;;;;5047886;28;20352;-56
2023/05/24 04:12:44;;;;;;;;;;;;;;;;;;5049017;28;19955;-57
2023/05/24 04:15:13;;;;;;;;;;;;;;;;;;5049588;28;19947;-57
2023/05/24 04:17:41;;;;;;;;;;;;;;;;;;5046694;28;19913;-57
2023/05/24 04:20:08;;;;;;;;;;;;;;;;;;5044955;28;19913;-56
2023/05/24 04:22:35;;;;;;;;;;;;;;;;;;5043393;28;20395;-56
2023/05/24 04:25:01;;;;;;;;;;;;;;;;;;5042745;28;19913;-57
2023/05/24 04:27:28;;;;;;;;;;;;;;;;;;5048548;28;19920;-56
2023/05/24 04:29:54;;;;;;;;;;;;;;;;;;5048967;28;19916;-57
2023/05/24 04:32:22;;;;;;;;;;;;;;;;;;5047641;28;19990;-57
2023/05/24 04:34:49;;;;;;;;;;;;;;;;;;5046059;28;19932;-56
2023/05/24 04:37:16;;;;;;;;;;;;;;;;;;5046426;28;19920;-56
2023/05/24 04:39:42;;;;;;;;;;;;;;;;;;5047744;28;19909;-56
2023/05/24 04:42:08;;;;;;;;;;;;;;;;;;5043964;28;19928;-57
2023/05/24 04:44:34;;;;;;;;;;;;;;;;;;5048038;28;19912;-57
2023/05/24 04:47:02;;;;;;;;;;;;;;;;;;5047770;28;20596;-56
2023/05/24 04:49:28;;;;;;;;;;;;;;;;;;5048260;28;19912;-57
2023/05/24 04:51:54;;;;;;;;;;;;;;;;;;5042577;28;20146;-57
2023/05/24 04:54:20;;;;;;;;;;;;;;;;;;5037501;28;20447;-58
2023/05/24 04:56:46;;;;;;;;;;;;;;;;;;5043292;28;19920;-57
2023/05/24 04:59:12;;;;;;;;;;;;;;;;;;5039910;28;20325;-57
2023/05/24 05:01:38;;;;;;;;;;;;;;;;;;5042752;28;19912;-57
2023/05/24 05:04:04;;;;;;;;;;;;;;;;;;5041446;28;20015;-57
2023/05/24 05:06:32;;;;;;;;;;;;;;;;;;5042549;28;19935;-57
2023/05/24 05:08:58;;;;;;;;;;;;;;;;;;5048507;28;20002;-57
2023/05/24 05:11:24;;;;;;;;;;;;;;;;;;5030597;28;19948;-56
2023/05/24 05:13:50;;;;;;;;;;;;;;;;;;5032821;28;19959;-57
2023/05/24 05:16:16;;;;;;;;;;;;;;;;;;5025210;28;20489;-57
2023/05/24 05:18:42;;;;;;;;;;;;;;;;;;5047571;28;19923;-59
2023/05/24 05:21:08;;;;;;;;;;;;;;;;;;5046966;28;20013;-57
2023/05/24 05:23:35;;;;;;;;;;;;;;;;;;5033625;28;20335;-57
2023/05/24 05:26:01;;;;;;;;;;;;;;;;;;5051506;28;19958;-57
2023/05/24 05:28:27;;;;;;;;;;;;;;;;;;5052707;28;19917;-57
2023/05/24 05:30:53;;;;;;;;;;;;;;;;;;5046714;28;19916;-56
2023/05/24 05:33:19;;;;;;;;;;;;;;;;;;5052408;28;20007;-57
2023/05/24 05:35:45;;;;;;;;;;;;;;;;;;5047808;28;20054;-54
2023/05/24 05:38:11;;;;;;;;;;;;;;;;;;5047984;28;19913;-60
2023/05/24 05:40:37;;;;;;;;;;;;;;;;;;5045889;28;19947;-61
2023/05/24 05:43:03;;;;;;;;;;;;;;;;;;5040499;28;19912;-60
2023/05/24 05:45:29;;;;;;;;;;;;;;;;;;5048902;28;20027;-61
2023/05/24 05:47:55;;;;;;;;;;;;;;;;;;5050583;28;20439;-61
2023/05/24 05:50:21;;;;;;;;;;;;;;;;;;5033055;28;20474;-60
2023/05/24 05:52:47;;;;;;;;;;;;;;;;;;5052603;28;19936;-61
2023/05/24 05:55:13;;;;;;;;;;;;;;;;;;5051086;28;20006;-60
2023/05/24 05:57:39;;;;;;;;;;;;;;;;;;5048284;28;20261;-61
2023/05/24 06:00:05;;;;;;;;;;;;;;;;;;5049412;28;19909;-58
2023/05/24 06:02:31;;;;;;;;;;;;;;;;;;5050124;28;20316;-60
2023/05/24 06:04:57;;;;;;;;;;;;;;;;;;5049791;28;19916;-60
2023/05/24 06:07:24;;;;;;;;;;;;;;;;;;5048180;28;19950;-60
2023/05/24 06:09:50;;;;;;;;;;;;;;;;;;5045149;28;19923;-60
2023/05/24 06:12:16;;;;;;;;;;;;;;;;;;5047273;28;19908;-60
2023/05/24 06:14:43;;;;;;;;;;;;;;;;;;5050853;28;19913;-60
2023/05/24 06:17:10;;;;;;;;;;;;;;;;;;5048712;28;20396;-60
2023/05/24 06:19:36;;;;;;;;;;;;;;;;;;5047633;28;19962;-60
2023/05/24 06:22:02;;;;;;;;;;;;;;;;;;5026697;28;19963;-60
2023/05/24 06:24:28;;;;;;;;;;;;;;;;;;5043024;28;19912;-60
2023/05/24 06:26:54;;;;;;;;;;;;;;;;;;5046344;28;19923;-60
2023/05/24 06:29:21;;;;;;;;;;;;;;;;;;5044130;28;20399;-60
2023/05/24 06:31:47;;;;;;;;;;;;;;;;;;5046829;28;19999;-58
2023/05/24 06:34:16;;;;;;;;;;;;;;;;;;5048813;28;19962;-59
2023/05/24 06:36:42;;;;;;;;;;;;;;;;;;5050028;28;20390;-58
2023/05/24 06:39:09;;;;;;;;;;;;;;;;;;5043136;28;20019;-59
2023/05/24 06:41:35;;;;;;;;;;;;;;;;;;5050935;28;19919;-60
2023/05/24 06:44:01;;;;;;;;;;;;;;;;;;5050297;28;19941;-59
2023/05/24 06:46:27;;;;;;;;;;;;;;;;;;5038894;28;19909;-59
2023/05/24 06:48:53;;;;;;;;;;;;;;;;;;5038232;28;19916;-59
2023/05/24 06:51:19;;;;;;;;;;;;;;;;;;5045172;28;19913;-59
2023/05/24 06:53:46;;;;;;;;;;;;;;;;;;5043344;28;19908;-60
2023/05/24 06:56:12;;;;;;;;;;;;;;;;;;5023481;28;19981;-59
2023/05/24 06:58:38;;;;;;;;;;;;;;;;;;5023943;28;19912;-60
2023/05/24 07:01:05;;;;;;;;;;;;;;;;;;5025196;28;19916;-61
2023/05/24 07:03:31;;;;;;;;;;;;;;;;;;5044132;28;19917;-59
2023/05/24 07:05:57;;;;;;;;;;;;;;;;;;5046492;28;19915;-59
2023/05/24 07:08:23;;;;;;;;;;;;;;;;;;5041309;28;19944;-59
2023/05/24 07:10:50;;;;;;;;;;;;;;;;;;5043055;28;19925;-61
2023/05/24 07:13:16;;;;;;;;;;;;;;;;;;5043961;28;20259;-60
2023/05/24 07:15:42;;;;;;;;;;;;;;;;;;5047510;28;20291;-59
2023/05/24 07:18:08;;;;;;;;;;;;;;;;;;5047076;28;19947;-58
2023/05/24 07:20:34;;;;;;;;;;;;;;;;;;5046447;28;19945;-59
2023/05/24 07:23:00;;;;;;;;;;;;;;;;;;5045229;28;19955;-59
2023/05/24 07:25:26;;;;;;;;;;;;;;;;;;5045675;28;19958;-59
2023/05/24 07:27:52;;;;;;;;;;;;;;;;;;5046262;28;19939;-59
2023/05/24 07:30:19;;;;;;;;;;;;;;;;;;5043628;28;19955;-59
2023/05/24 07:32:45;;;;;;;;;;;;;;;;;;5025766;28;20633;-59
2023/05/24 07:35:15;;;;;;;;;;;;;;;;;;5043207;28;19916;-60
2023/05/24 07:37:41;;;;;;;;;;;;;;;;;;5037436;28;20035;-60
2023/05/24 07:40:10;;;;;;;;;;;;;;;;;;5043351;28;19919;-59
2023/05/24 07:42:36;;;;;;;;;;;;;;;;;;5047449;28;19919;-59
2023/05/24 07:45:02;;;;;;;;;;;;;;;;;;5047011;28;20004;-59
2023/05/24 07:47:28;;;;;;;;;;;;;;;;;;5047428;28;19936;-59
2023/05/24 07:49:54;;;;;;;;;;;;;;;;;;5029364;28;19912;-60
2023/05/24 07:52:22;;;;;;;;;;;;;;;;;;5037649;28;19913;-60
2023/05/24 07:54:48;;;;;;;;;;;;;;;;;;5039669;28;19919;-60
2023/05/24 07:57:14;;;;;;;;;;;;;;;;;;5044913;28;19915;-59
2023/05/24 07:59:40;;;;;;;;;;;;;;;;;;5043108;28;20239;-59
2023/05/24 08:02:10;;;;;;;;;;;;;;;;;;5043658;28;20446;-60
2023/05/24 08:04:36;;;;;;;;;;;;;;;;;;5046779;28;19990;-60
2023/05/24 08:07:03;;;;;;;;;;;;;;;;;;5047547;28;20280;-60
2023/05/24 08:09:34;;;;;;;;;;;;;;;;;;5045438;28;21216;-60
2023/05/24 08:12:00;;;;;;;;;;;;;;;;;;5045839;28;19913;-59
2023/05/24 08:14:26;;;;;;;;;;;;;;;;;;5043378;28;19913;-60
2023/05/24 08:16:53;;;;;;;;;;;;;;;;;;5043306;28;20257;-60
2023/05/24 08:19:19;;;;;;;;;;;;;;;;;;5041612;28;20007;-60
2023/05/24 08:21:45;;;;;;;;;;;;;;;;;;5041344;28;19912;-59
2023/05/24 08:24:11;;;;;;;;;;;;;;;;;;5040889;28;19963;-59
2023/05/24 08:26:38;;;;;;;;;;;;;;;;;;5044083;28;20379;-59
2023/05/24 08:29:04;;;;;;;;;;;;;;;;;;5043876;28;19917;-58
2023/05/24 08:31:32;;;;;;;;;;;;;;;;;;5043299;28;19917;-59
2023/05/24 08:33:58;;;;;;;;;;;;;;;;;;5046947;28;19909;-60
2023/05/24 08:36:24;;;;;;;;;;;;;;;;;;5038397;28;19913;-59
2023/05/24 08:38:50;;;;;;;;;;;;;;;;;;5038002;28;19913;-59
2023/05/24 08:41:16;;;;;;;;;;;;;;;;;;5034092;28;20627;-59
2023/05/24 08:43:45;;;;;;;;;;;;;;;;;;5037049;28;20368;-59
2023/05/24 08:46:11;;;;;;;;;;;;;;;;;;5036394;28;19928;-59
2023/05/24 08:48:37;;;;;;;;;;;;;;;;;;5040528;28;20343;-59
2023/05/24 08:51:03;;;;;;;;;;;;;;;;;;5040094;28;19919;-59
2023/05/24 08:53:29;;;;;;;;;;;;;;;;;;5039569;28;20243;-59
2023/05/24 08:55:56;;;;;;;;;;;;;;;;;;5044045;28;20426;-60
2023/05/24 08:58:22;;;;;;;;;;;;;;;;;;5045146;28;20355;-58
2023/05/24 09:00:48;;;;;;;;;;;;;;;;;;5045135;28;19966;-63
2023/05/24 09:03:14;;;;;;;;;;;;;;;;;;5021781;28;20022;-62
2023/05/24 09:05:40;;;;;;;;;;;;;;;;;;5041920;28;19920;-64
2023/05/24 09:08:06;;;;;;;;;;;;;;;;;;5047208;28;20352;-62
2023/05/24 09:10:32;;;;;;;;;;;;;;;;;;5039753;28;19927;-63
2023/05/24 09:12:58;;;;;;;;;;;;;;;;;;5044709;28;19913;-63
2023/05/24 09:15:25;;;;;;;;;;;;;;;;;;5037218;28;19995;-63
2023/05/24 09:17:51;;;;;;;;;;;;;;;;;;5041236;28;19916;-63
2023/05/24 09:20:17;;;;;;;;;;;;;;;;;;5040136;28;20047;-62
2023/05/24 09:22:43;;;;;;;;;;;;;;;;;;5042030;28;19966;-61
2023/05/24 09:25:10;;;;;;;;;;;;;;;;;;5040330;28;19919;-62
2023/05/24 09:27:37;;;;;;;;;;;;;;;;;;5046375;28;20236;-62
2023/05/24 09:30:04;;;;;;;;;;;;;;;;;;5044025;28;19935;-62
2023/05/24 09:32:30;;;;;;;;;;;;;;;;;;5036719;28;20005;-64
2023/05/24 09:34:56;;;;;;;;;;;;;;;;;;5042594;28;19908;-63
2023/05/24 09:37:23;;;;;;;;;;;;;;;;;;5044069;28;19936;-62
2023/05/24 09:39:52;;;;;;;;;;;;;;;;;;5040060;28;19916;-63
2023/05/24 09:42:21;;;;;;;;;;;;;;;;;;5042898;28;20065;-62
2023/05/24 09:44:47;;;;;;;;;;;;;;;;;;5044861;28;19935;-63
2023/05/24 09:47:13;;;;;;;;;;;;;;;;;;5043742;28;19923;-63
2023/05/24 09:49:39;;;;;;;;;;;;;;;;;;5041926;28;20364;-64
2023/05/24 09:52:06;;;;;;;;;;;;;;;;;;5039858;28;19999;-64
2023/05/24 09:54:32;;;;;;;;;;;;;;;;;;5042440;28;20424;-63
2023/05/24 09:56:59;;;;;;;;;;;;;;;;;;5029684;28;20003;-63
2023/05/24 09:59:25;;;;;;;;;;;;;;;;;;5042119;28;19935;-64
2023/05/24 10:01:52;;;;;;;;;;;;;;;;;;5048908;28;20329;-64
2023/05/24 10:04:18;;;;;;;;;;;;;;;;;;5045435;28;19912;-62
2023/05/24 10:06:44;;;;;;;;;;;;;;;;;;5048242;28;20449;-64
2023/05/24 10:09:12;;;;;;;;;;;;;;;;;;5047234;28;19913;-63
2023/05/24 10:11:38;;;;;;;;;;;;;;;;;;5047355;28;20000;-63
2023/05/24 10:14:06;;;;;;;;;;;;;;;;;;5043141;28;20016;-63
2023/05/24 10:16:32;;;;;;;;;;;;;;;;;;5045854;28;19913;-64
2023/05/24 10:18:58;;;;;;;;;;;;;;;;;;5045568;28;20228;-64
2023/05/24 10:21:25;;;;;;;;;;;;;;;;;;5042016;28;19920;-64
2023/05/24 10:23:52;;;;;;;;;;;;;;;;;;5044409;28;19909;-63
2023/05/24 10:26:18;;;;;;;;;;;;;;;;;;5047057;28;19972;-64
2023/05/24 10:28:44;;;;;;;;;;;;;;;;;;5059716;28;19999;-63
2023/05/24 10:31:11;;;;;;;;;;;;;;;;;;5060960;28;19958;-60
2023/05/24 10:33:37;;;;;;;;;;;;;;;;;;5060817;28;19916;-61
2023/05/24 10:36:03;;;;;;;;;;;;;;;;;;5042025;28;19965;-60
2023/05/24 10:38:29;;;;;;;;;;;;;;;;;;5043990;28;19923;-63
2023/05/24 10:40:55;;;;;;;;;;;;;;;;;;5059549;28;19923;-62
2023/05/24 10:43:21;;;;;;;;;;;;;;;;;;5059543;28;19913;-62
2023/05/24 10:45:47;;;;;;;;;;;;;;;;;;5061166;28;20013;-62
2023/05/24 10:48:14;;;;;;;;;;;;;;;;;;5060707;28;20344;-59
2023/05/24 10:50:40;;;;;;;;;;;;;;;;;;5058967;28;19927;-60
2023/05/24 10:53:06;;;;;;;;;;;;;;;;;;5064237;28;20380;-58
2023/05/24 10:55:32;;;;;;;;;;;;;;;;;;5059325;28;20003;-58
2023/05/24 10:57:59;;;;;;;;;;;;;;;;;;5063802;28;19940;-62
2023/05/24 11:00:26;;;;;;;;;;;;;;;;;;5062786;28;20308;-62
2023/05/24 11:02:53;;;;;;;;;;;;;;;;;;5067979;28;20229;-59
2023/05/24 11:05:20;;;;;;;;;;;;;;;;;;5063903;28;19948;-60
2023/05/24 11:07:47;;;;;;;;;;;;;;;;;;5047760;28;19957;-60
2023/05/24 11:10:14;;;;;;;;;;;;;;;;;;5062961;28;19965;-61
2023/05/24 11:12:41;;;;;;;;;;;;;;;;;;5046671;28;19913;-59
2023/05/24 11:15:08;;;;;;;;;;;;;;;;;;5064778;28;19912;-60
2023/05/24 11:17:34;;;;;;;;;;;;;;;;;;5066562;28;19912;-60
2023/05/24 11:20:00;;;;;;;;;;;;;;;;;;5064315;28;19916;-59
2023/05/24 11:22:26;;;;;;;;;;;;;;;;;;5059724;28;19939;-59
2023/05/24 11:24:52;;;;;;;;;;;;;;;;;;5061689;28;19916;-59
2023/05/24 11:27:18;;;;;;;;;;;;;;;;;;5039770;28;19917;-59
2023/05/24 11:29:45;;;;;;;;;;;;;;;;;;5045857;28;19925;-59
2023/05/24 11:32:11;;;;;;;;;;;;;;;;;;5046178;28;20019;-59
2023/05/24 11:34:38;;;;;;;;;;;;;;;;;;5045225;28;19920;-59
2023/05/24 11:37:04;;;;;;;;;;;;;;;;;;5045922;28;19920;-58
2023/05/24 11:39:30;;;;;;;;;;;;;;;;;;5041861;28;19920;-59
2023/05/24 11:41:56;;;;;;;;;;;;;;;;;;5044910;28;19912;-59
2023/05/24 11:44:22;;;;;;;;;;;;;;;;;;5044161;28;19909;-61
2023/05/24 11:46:48;;;;;;;;;;;;;;;;;;5045867;28;20386;-61
2023/05/24 11:49:14;;;;;;;;;;;;;;;;;;5039508;28;19968;-59
2023/05/24 11:51:40;;;;;;;;;;;;;;;;;;5045304;28;19955;-59
2023/05/24 11:54:06;;;;;;;;;;;;;;;;;;5043039;28;19913;-60
2023/05/24 11:56:32;;;;;;;;;;;;;;;;;;5023743;28;19959;-59
2023/05/24 11:58:58;;;;;;;;;;;;;;;;;;5043596;28;20372;-59
2023/05/24 12:01:24;;;;;;;;;;;;;;;;;;5041789;28;19955;-60
2023/05/24 12:03:50;;;;;;;;;;;;;;;;;;5039207;28;20342;-60
2023/05/24 12:06:16;;;;;;;;;;;;;;;;;;5042680;28;19967;-60
2023/05/24 12:08:42;;;;;;;;;;;;;;;;;;5039945;28;19917;-60
2023/05/24 12:11:08;;;;;;;;;;;;;;;;;;5044953;28;20462;-61
2023/05/24 12:13:35;;;;;;;;;;;;;;;;;;5041207;28;19951;-61
2023/05/24 12:16:01;;;;;;;;;;;;;;;;;;5038305;28;19913;-60
2023/05/24 12:18:27;;;;;;;;;;;;;;;;;;5042437;28;20023;-61
2023/05/24 12:20:53;;;;;;;;;;;;;;;;;;5039831;28;20379;-59
2023/05/24 12:23:20;;;;;;;;;;;;;;;;;;5022962;28;19928;-61
2023/05/24 12:25:46;;;;;;;;;;;;;;;;;;5042400;28;20396;-60
2023/05/24 12:28:12;;;;;;;;;;;;;;;;;;5044401;28;20020;-62
2023/05/24 12:30:41;;;;;;;;;;;;;;;;;;5042038;28;19991;-60
2023/05/24 12:33:07;;;;;;;;;;;;;;;;;;5041850;28;19913;-61
2023/05/24 12:35:33;;;;;;;;;;;;;;;;;;5043319;28;20359;-61
2023/05/24 12:37:59;;;;;;;;;;;;;;;;;;5043885;28;20325;-60
2023/05/24 12:40:25;;;;;;;;;;;;;;;;;;5040615;28;19916;-60
2023/05/24 12:42:52;;;;;;;;;;;;;;;;;;5038455;28;19912;-60
2023/05/24 12:45:21;;;;;;;;;;;;;;;;;;5042525;28;20434;-60
2023/05/24 12:47:47;;;;;;;;;;;;;;;;;;5043237;28;19929;-60
2023/05/24 12:50:15;;;;;;;;;;;;;;;;;;5039607;28;19924;-61
2023/05/24 12:52:43;;;;;;;;;;;;;;;;;;5040157;28;19913;-60
2023/05/24 12:55:09;;;;;;;;;;;;;;;;;;5039008;28;19991;-60
2023/05/24 12:57:35;;;;;;;;;;;;;;;;;;5042092;28;21306;-60
2023/05/24 13:00:04;;;;;;;;;;;;;;;;;;5025376;28;19951;-59
2023/05/24 13:02:30;;;;;;;;;;;;;;;;;;5042452;28;19913;-61
2023/05/24 13:04:56;;;;;;;;;;;;;;;;;;5022712;28;19987;-60
2023/05/24 13:07:22;;;;;;;;;;;;;;;;;;5044276;28;19959;-60
2023/05/24 13:09:48;;;;;;;;;;;;;;;;;;5042666;28;19916;-59
2023/05/24 13:12:15;;;;;;;;;;;;;;;;;;5041516;28;20257;-60
2023/05/24 13:14:41;;;;;;;;;;;;;;;;;;5023194;28;19920;-60
2023/05/24 13:17:07;;;;;;;;;;;;;;;;;;5039972;28;19909;-59
2023/05/24 13:19:33;;;;;;;;;;;;;;;;;;5019686;28;19917;-60
2023/05/24 13:21:59;;;;;;;;;;;;;;;;;;5041455;28;19912;-59
2023/05/24 13:24:25;;;;;;;;;;;;;;;;;;5019758;28;19936;-59
2023/05/24 13:26:51;;;;;;;;;;;;;;;;;;5039249;28;19924;-59
2023/05/24 13:29:17;;;;;;;;;;;;;;;;;;5042602;28;20403;-60
2023/05/24 13:31:43;;;;;;;;;;;;;;;;;;5043364;28;20356;-59
2023/05/24 13:34:10;;;;;;;;;;;;;;;;;;5041534;28;20245;-61
2023/05/24 13:36:36;;;;;;;;;;;;;;;;;;5048047;28;19955;-60
2023/05/24 13:39:03;;;;;;;;;;;;;;;;;;5037269;28;19916;-60
2023/05/24 13:41:29;;;;;;;;;;;;;;;;;;5039583;28;20459;-60
2023/05/24 13:43:58;;;;;;;;;;;;;;;;;;5045958;28;19924;-59
2023/05/24 13:46:24;;;;;;;;;;;;;;;;;;5039941;28;19968;-60
2023/05/24 13:48:51;;;;;;;;;;;;;;;;;;5047677;28;19944;-60
2023/05/24 13:51:18;;;;;;;;;;;;;;;;;;5047812;28;20070;-60
2023/05/24 13:53:46;;;;;;;;;;;;;;;;;;5041675;28;20338;-61
2023/05/24 13:56:12;;;;;;;;;;;;;;;;;;5038773;28;19916;-60
2023/05/24 13:58:38;;;;;;;;;;;;;;;;;;5046724;28;20421;-60
2023/05/24 14:01:04;;;;;;;;;;;;;;;;;;5046703;28;19908;-61
2023/05/24 14:03:30;;;;;;;;;;;;;;;;;;5047096;28;19939;-60
2023/05/24 14:05:57;;;;;;;;;;;;;;;;;;5050349;28;20358;-61
2023/05/24 14:08:23;;;;;;;;;;;;;;;;;;5045349;28;20391;-63
2023/05/24 14:10:49;;;;;;;;;;;;;;;;;;5046077;28;20043;-60
2023/05/24 14:13:15;;;;;;;;;;;;;;;;;;5049057;28;20456;-59
2023/05/24 14:15:41;;;;;;;;;;;;;;;;;;5051434;28;19904;-61
2023/05/24 14:18:07;;;;;;;;;;;;;;;;;;5045224;28;20280;-60
2023/05/24 14:20:35;;;;;;;;;;;;;;;;;;5047319;28;19909;-60
2023/05/24 14:23:01;;;;;;;;;;;;;;;;;;5047014;28;19925;-61
2023/05/24 14:25:27;;;;;;;;;;;;;;;;;;5039396;28;19991;-58
2023/05/24 14:27:53;;;;;;;;;;;;;;;;;;5045022;28;20447;-60
2023/05/24 14:30:19;;;;;;;;;;;;;;;;;;5042416;28;20343;-56
2023/05/24 14:32:45;;;;;;;;;;;;;;;;;;5048277;28;19940;-56
2023/05/24 14:35:11;;;;;;;;;;;;;;;;;;5041885;28;19952;-57
2023/05/24 14:37:37;;;;;;;;;;;;;;;;;;5044281;28;19943;-57
2023/05/24 14:40:03;;;;;;;;;;;;;;;;;;5041255;28;19912;-56
2023/05/24 14:42:30;;;;;;;;;;;;;;;;;;5040900;28;19962;-56
2023/05/24 14:44:56;;;;;;;;;;;;;;;;;;5038788;28;19935;-57
2023/05/24 14:47:21;;;;;;;;;;;;;;;;;;5039571;28;19909;-57
2023/05/24 14:49:47;;;;;;;;;;;;;;;;;;5041112;28;19987;-57
2023/05/24 14:52:13;;;;;;;;;;;;;;;;;;5041067;28;20074;-57
2023/05/24 14:54:39;;;;;;;;;;;;;;;;;;5044656;28;20305;-56
2023/05/24 14:57:08;;;;;;;;;;;;;;;;;;5044855;28;19956;-56
2023/05/24 14:59:34;;;;;;;;;;;;;;;;;;5047661;28;20349;-58
2023/05/24 15:02:00;;;;;;;;;;;;;;;;;;5045547;28;20007;-58
2023/05/24 15:04:26;;;;;;;;;;;;;;;;;;5047355;28;19948;-58
2023/05/24 15:06:52;;;;;;;;;;;;;;;;;;5043007;28;20150;-58
2023/05/24 15:09:18;;;;;;;;;;;;;;;;;;5045829;28;19912;-58
2023/05/24 15:11:45;;;;;;;;;;;;;;;;;;5046709;28;20011;-57
2023/05/24 15:14:11;;;;;;;;;;;;;;;;;;5044541;28;19938;-57
2023/05/24 15:16:37;;;;;;;;;;;;;;;;;;5046000;28;19909;-58
2023/05/24 15:19:03;;;;;;;;;;;;;;;;;;5044544;28;20280;-58
2023/05/24 15:21:29;;;;;;;;;;;;;;;;;;5042965;28;19921;-57
2023/05/24 15:23:55;;;;;;;;;;;;;;;;;;5044858;28;20223;-57
2023/05/24 15:26:21;;;;;;;;;;;;;;;;;;5038159;28;19943;-57
2023/05/24 15:28:47;;;;;;;;;;;;;;;;;;5040428;28;19920;-55
2023/05/24 15:31:13;;;;;;;;;;;;;;;;;;5045734;28;19955;-55
2023/05/24 15:33:39;;;;;;;;;;;;;;;;;;5041878;28;20584;-60
2023/05/24 15:36:07;;;;;;;;;;;;;;;;;;5044472;28;19934;-54
2023/05/24 15:38:33;;;;;;;;;;;;;;;;;;5040489;28;19908;-55
2023/05/24 15:40:59;;;;;;;;;;;;;;;;;;5038657;28;19915;-55
2023/05/24 15:43:25;;;;;;;;;;;;;;;;;;5040762;28;19952;-55
2023/05/24 15:45:52;;;;;;;;;;;;;;;;;;5039512;28;19990;-54
2023/05/24 15:48:18;;;;;;;;;;;;;;;;;;5039963;28;19915;-54
2023/05/24 15:50:44;;;;;;;;;;;;;;;;;;5041662;28;20470;-55
2023/05/24 15:53:10;;;;;;;;;;;;;;;;;;5045580;28;19940;-54
2023/05/24 15:55:37;;;;;;;;;;;;;;;;;;5042497;28;20005;-53
2023/05/24 15:58:03;;;;;;;;;;;;;;;;;;5047909;28;19909;-54
2023/05/24 16:00:30;;;;;;;;;;;;;;;;;;5045032;28;19912;-54
2023/05/24 16:02:56;;;;;;;;;;;;;;;;;;5043592;28;20014;-54
2023/05/24 16:05:23;;;;;;;;;;;;;;;;;;5045524;28;20063;-54
2023/05/24 16:07:52;;;;;;;;;;;;;;;;;;5045127;28;19908;-53
2023/05/24 16:10:18;;;;;;;;;;;;;;;;;;5041358;28;19935;-54
2023/05/24 16:12:44;;;;;;;;;;;;;;;;;;5046170;28;19944;-53
2023/05/24 16:15:11;;;;;;;;;;;;;;;;;;5047006;28;19912;-54
2023/05/24 16:17:37;;;;;;;;;;;;;;;;;;5043796;28;20146;-54
2023/05/24 16:20:03;;;;;;;;;;;;;;;;;;5041150;28;20019;-59
2023/05/24 16:22:29;;;;;;;;;;;;;;;;;;5046232;28;19909;-58
2023/05/24 16:24:55;;;;;;;;;;;;;;;;;;5041778;28;19917;-58
2023/05/24 16:27:21;;;;;;;;;;;;;;;;;;5044381;28;20343;-60
2023/05/24 16:29:48;;;;;;;;;;;;;;;;;;5043022;28;19917;-59
2023/05/24 16:32:14;;;;;;;;;;;;;;;;;;5034244;28;20249;-60
2023/05/24 16:34:40;;;;;;;;;;;;;;;;;;5029857;28;19908;-59
2023/05/24 16:37:06;;;;;;;;;;;;;;;;;;5042394;28;20317;-59
2023/05/24 16:39:36;;;;;;;;;;;;;;;;;;5043968;28;20971;-59